HOURLY OBS INDEX

088

Central - north

EILDON FIRE TOWER

Site: 088164
Alt: 637.0m
57km NNE of HEALESVILLE


  Time     Wind        Temp  DP   Baro     Rain since   Rain past  Vis(m), Cloud(base in m), Weather
  local        km/h                         9am  last   hr   10m    
Wed 06:00   NE 15/ 20  18.3 12.3  ------    0.0   0.0   0.0   0.0   ----- 
Wed 06:30   NE 15/ 19  18.4 12.2  ------    0.0   0.0   0.0   0.0   ----- 
Wed 07:00   NE 13/ 20  18.4 12.4  ------    0.0   0.0   0.0   0.0   ----- 
Wed 07:30  NNE 11/ 19  18.5 12.3  ------    0.0   0.0   0.0   0.0   ----- 
Wed 08:00   NE 11/ 19  18.7 12.5  ------    0.0   0.0   0.0   0.0   ----- 
Wed 08:30   NE 11/ 15  19.6 13.1  ------    0.0   0.0   0.0   0.0   ----- 
Wed 09:00   NE 11/ 17  20.7 13.2  ------    0.0   0.0   0.0   0.0   ----- 
Wed 09:30   NE 15/ 22  22.1 13.5  ------    0.0   0.0   0.0   0.0   ----- 
Wed 10:00   NE 13/ 20  21.8 13.4  ------    0.0   0.0   0.0   0.0   ----- 
Wed 10:30   NE 19/ 30  23.3 12.0  ------    0.0   0.0   0.0   0.0   ----- 
Wed 11:00   NE 13/ 22  22.5 12.2  ------    0.0   0.0   0.0   0.0   ----- 

MANGALORE AIRPORT

Site: 088109
Alt: 140.8m
16km NNE of SEYMOUR


  Time     Wind        Temp  DP   Baro     Rain since   Rain past  Vis(m), Cloud(base in m), Weather
  local        km/h                         9am  last   hr   10m    
Wed 06:00   NE 24/ 33  21.6 13.2  1011.1    0.0   0.0   0.0   0.0   10000 
Wed 06:30   NE 22/ 30  21.4 13.1  1011.5    0.0   0.0   0.0   0.0   10000 
Wed 07:00   NE 22/ 33  21.6 13.2  1011.6    0.0   0.0   0.0   0.0   10000 
Wed 07:30   NE 19/ 24  22.1 14.0  1012.1    0.0   0.0   0.0   0.0   10000 
Wed 08:00   NE 28/ 37  23.3 13.8  1012.0    0.0   0.0   0.0   0.0   10000 
Wed 08:30  NNE 20/ 28  22.7 14.0  1012.0    0.0   0.0   0.0   0.0   10000 
Wed 09:00   NE 22/ 28  25.6 14.7  1011.8    0.0   0.0   0.0   0.0   10000 
Wed 09:30  NNE 28/ 35  25.5 14.6  1011.6    0.0   0.0   0.0   0.0   10000 
Wed 10:00   NE 28/ 32  26.1 13.9  1011.2    0.0   0.0   0.0   0.0   10000 
Wed 10:30  NNE 26/ 35  26.1 13.6  1011.0    0.0   0.0   0.0   0.0   10000 
Wed 11:00  NNE 24/ 30  27.0 14.1  1010.5    0.0   0.0   0.0   0.0   10000 

PUCKAPUNYAL LYON HILL (DEFENCE)

Site: 088167
Alt: 193.0m
km of


  Time     Wind        Temp  DP   Baro     Rain since   Rain past  Vis(m), Cloud(base in m), Weather
  local        km/h                         9am  last   hr   10m    
Wed 06:00    E  9/ 13  19.0 13.8  ------    0.0   0.0   0.0   0.0   ----- 
Wed 06:30  ENE 11/ 22  20.4 14.1  ------    0.0   0.0   0.0   0.0   ----- 
Wed 07:00   NE 15/ 20  20.9 14.1  ------    0.0   0.0   0.0   0.0   ----- 
Wed 07:30   NE 17/ 28  22.1 14.2  ------    0.0   0.0   0.0   0.0   ----- 
Wed 08:00   NE 15/ 22  22.7 14.8  ------    0.0   0.0   0.0   0.0   ----- 
Wed 08:30   NE 19/ 30  23.0 15.1  ------    0.0   0.0   0.0   0.0   ----- 
Wed 09:00   NE 20/ 30  23.4 15.5  ------    0.0   0.0   0.0   0.0   ----- 
Wed 09:30  NNE 24/ 35  25.1 14.3  ------    0.0   0.0   0.0   0.0   ----- 
Wed 10:00  NNE 26/ 35  25.2 14.0  ------    0.0   0.0   0.0   0.0   ----- 
Wed 10:30  NNE 20/ 30  25.7 14.5  ------    0.0   0.0   0.0   0.0   ----- 
Wed 11:00  ENE 20/ 32  26.3 14.4  ------    0.0   0.0   0.0   0.0   ----- 

PUCKAPUNYAL WEST (DEFENCE)

Site: 088166
Alt: 293.0m
km of


  Time     Wind        Temp  DP   Baro     Rain since   Rain past  Vis(m), Cloud(base in m), Weather
  local        km/h                         9am  last   hr   10m    
Wed 06:00    E  2/  6  18.5 13.6  ------   ----  ----  ----   0.0   ----- 
Wed 06:30    C  0/  0  18.2 13.5  ------   ----  ----  ----   0.0   ----- 
Wed 07:00    C  0/  4  18.9 13.5  ------   ----  ----  ----   0.0   ----- 
Wed 07:30   NE  4/  9  20.7 13.9  ------   ----  ----  ----   0.0   ----- 
Wed 08:00   NE 15/ 26  21.9 14.5  ------   ----  ----  ----   0.0   ----- 
Wed 08:30  NNE 22/ 33  22.6 14.7  ------   ----  ----  ----   0.0   ----- 
Wed 09:00  NNE 17/ 26  22.5 14.9  ------   ----  ----  ----   0.0   ----- 
Wed 09:30  NNE 20/ 28  24.3 15.0  ------    0.0  ----  ----   0.0   ----- 
Wed 10:00   NE 19/ 26  24.9 15.0  ------    0.0   0.0  ----   0.0   ----- 
Wed 10:30  NNE 19/ 28  24.7 13.6  ------    0.0   0.0   0.0   0.0   ----- 
Wed 11:00    N 13/ 22  25.5 14.3  ------    0.0   0.0   0.0   0.0   ----- 

REDESDALE

Site: 088051
Alt: 290.0m
36km SE of BENDIGO


  Time     Wind        Temp  DP   Baro     Rain since   Rain past  Vis(m), Cloud(base in m), Weather
  local        km/h                         9am  last   hr   10m    
Wed 06:00    E  4/  6  18.2 13.1  ------    0.0   0.0   0.0   0.0   ----- 
Wed 06:30    E  7/ 15  18.8 13.4  ------    0.0   0.0   0.0   0.0   ----- 
Wed 07:00  ENE  6/  9  19.2 13.4  ------    0.0   0.0   0.0   0.0   ----- 
Wed 07:30  ENE  7/ 11  20.0 13.9  ------    0.0   0.0   0.0   0.0   ----- 
Wed 08:00  ENE 13/ 20  21.8 13.9  ------    0.0   0.0   0.0   0.0   ----- 
Wed 08:30   NE 15/ 26  22.4 14.5  ------    0.0   0.0   0.0   0.0   ----- 
Wed 09:00   NE 15/ 24  23.9 14.6  ------    0.0   0.0   0.0   0.0   ----- 
Wed 09:30   NE 19/ 28  24.0 14.7  ------    0.0   0.0   0.0   0.0   ----- 
Wed 10:00   NE 19/ 26  24.5 14.3  ------    0.0   0.0   0.0   0.0   ----- 
Wed 10:30    N 17/ 26  26.3 15.0  ------    0.0   0.0   0.0   0.0   ----- 
Wed 11:00  NNE 17/ 28  25.9 14.1  ------    0.0   0.0   0.0   0.0   ----- 

WALLAN (KILMORE GAP)

Site: 088162
Alt: 527.8m
43km SSW of SEYMOUR


  Time     Wind        Temp  DP   Baro     Rain since   Rain past  Vis(m), Cloud(base in m), Weather
  local        km/h                         9am  last   hr   10m    
Wed 06:00    N 28/ 32  17.3 13.4  1012.5    0.0   0.0   0.0   0.0   10000 
Wed 06:30    N 32/ 39  17.6 13.5  1012.6    0.0   0.0   0.0   0.0   10000 
Wed 07:00    N 33/ 41  17.5 13.4  1012.5    0.0   0.0   0.0   0.0   10000 
Wed 07:30    N 32/ 39  18.3 13.8  1012.7    0.0   0.0   0.0   0.0   10000 
Wed 08:00    N 35/ 45  18.6 13.7  1012.7    0.0   0.0   0.0   0.0   10000 
Wed 08:30    N 32/ 41  20.4 14.7  1012.7    0.0   0.0   0.0   0.0   10000 
Wed 09:00    N 35/ 46  21.6 15.4  1012.7    0.0   0.0   0.0   0.0   10000 
Wed 09:30    N 35/ 43  23.0 15.6  1012.5    0.0   0.0   0.0   0.0   10000 
Wed 10:00    N 41/ 50  23.5 13.9  1012.2    0.0   0.0   0.0   0.0   10000 
Wed 10:30    N 39/ 52  23.4 13.3  1012.0    0.0   0.0   0.0   0.0   10000 
Wed 11:00    N 33/ 46  25.0 13.9  1011.9    0.0   0.0   0.0   0.0   10000